createdAt,value
2023-02-08T00:00:17.222Z,1039.1
2023-02-08T00:01:33.600Z,1039.1
2023-02-08T00:02:49.776Z,1039.2
2023-02-08T00:04:05.972Z,1039.2
2023-02-08T00:05:22.159Z,1039.2
2023-02-08T00:06:38.352Z,1039.2
2023-02-08T00:07:54.539Z,1039.2
2023-02-08T00:09:10.731Z,1039.2
2023-02-08T00:10:26.739Z,1039.2
2023-02-08T00:11:43.113Z,1039.2
2023-02-08T00:12:59.302Z,1039.1
2023-02-08T00:14:15.493Z,1039.1
2023-02-08T00:15:30.697Z,1039.2
2023-02-08T00:16:46.884Z,1039.2
2023-02-08T00:18:02.894Z,1039.1
2023-02-08T00:19:19.254Z,1039.1
2023-02-08T00:20:35.447Z,1039.1
2023-02-08T00:21:51.640Z,1039.1
2023-02-08T00:23:07.827Z,1039.1
2023-02-08T00:24:24.014Z,1039
2023-02-08T00:25:40.199Z,1039
2023-02-08T00:26:56.392Z,1039.1
2023-02-08T00:28:12.581Z,1039.1
2023-02-08T00:29:28.764Z,1039.1
2023-02-08T00:30:44.967Z,1039.1
2023-02-08T00:32:00.166Z,1039.1
2023-02-08T00:33:16.333Z,1039.1
2023-02-08T00:34:32.543Z,1039.1
2023-02-08T00:35:48.743Z,1039.1
2023-02-08T00:37:04.920Z,1039.1
2023-02-08T00:38:21.120Z,1039.1
2023-02-08T00:39:36.321Z,1039.1
2023-02-08T00:40:52.476Z,1039.1
2023-02-08T00:42:08.696Z,1039.1
2023-02-08T00:43:24.889Z,1039.1
2023-02-08T00:44:41.086Z,1039.1
2023-02-08T00:45:57.237Z,1039.1
2023-02-08T00:47:13.452Z,1039.1
2023-02-08T00:49:45.834Z,1039.1
2023-02-08T00:51:02.021Z,1039.1
2023-02-08T00:52:18.215Z,1039.1
2023-02-08T00:53:34.400Z,1039.1
2023-02-08T00:54:50.593Z,1039
2023-02-08T00:56:06.787Z,1039.1
2023-02-08T00:57:23.074Z,1039.1
2023-02-08T00:58:39.276Z,1039.1
2023-02-08T00:59:55.451Z,1039
2023-02-08T01:01:11.662Z,1039
2023-02-08T01:02:27.844Z,1039
2023-02-08T01:03:44.038Z,1039.1
2023-02-08T01:05:00.209Z,1039.1
2023-02-08T01:06:16.422Z,1039.1
2023-02-08T01:07:32.607Z,1039.1
2023-02-08T01:08:48.776Z,1039.1
2023-02-08T01:10:04.993Z,1039.1
2023-02-08T01:11:21.165Z,1039.2
2023-02-08T01:12:37.382Z,1039.2
2023-02-08T01:13:52.574Z,1039.2
2023-02-08T01:15:08.766Z,1039.2
2023-02-08T01:16:24.952Z,1039.2
2023-02-08T01:17:41.126Z,1039.2
2023-02-08T01:18:57.300Z,1039.2
2023-02-08T01:20:13.515Z,1039.2
2023-02-08T01:21:29.710Z,1039.2
2023-02-08T01:22:45.899Z,1039.2
2023-02-08T01:24:02.073Z,1039.2
2023-02-08T01:25:18.246Z,1039.2
2023-02-08T01:26:34.444Z,1039.1
2023-02-08T01:27:50.651Z,1039.2
2023-02-08T01:29:06.810Z,1039.2
2023-02-08T01:30:22.043Z,1039.1
2023-02-08T01:31:38.205Z,1039.2
2023-02-08T01:32:54.428Z,1039.2
2023-02-08T01:34:10.616Z,1039.1
2023-02-08T01:35:26.807Z,1039.1
2023-02-08T01:36:42.980Z,1039.2
2023-02-08T01:37:59.159Z,1039.1
2023-02-08T01:39:15.366Z,1039.2
2023-02-08T01:40:31.560Z,1039.1
2023-02-08T01:41:47.744Z,1039.1
2023-02-08T01:43:03.939Z,1039.1
2023-02-08T01:44:20.122Z,1039.1
2023-02-08T01:45:36.303Z,1039.1
2023-02-08T01:46:51.522Z,1039.1
2023-02-08T01:48:07.699Z,1039.1
2023-02-08T01:49:23.878Z,1039.1
2023-02-08T01:50:40.065Z,1039.1
2023-02-08T01:51:56.265Z,1039.1
2023-02-08T01:53:12.462Z,1039.1
2023-02-08T01:54:28.653Z,1039.2
2023-02-08T01:55:44.843Z,1039.2
2023-02-08T01:57:00.989Z,1039.2
2023-02-08T01:58:17.195Z,1039.1
2023-02-08T01:59:33.382Z,1039.2
2023-02-08T02:00:49.571Z,1039.1
2023-02-08T02:02:05.722Z,1039.1
2023-02-08T02:03:20.965Z,1039.1
2023-02-08T02:04:37.118Z,1039.1
2023-02-08T02:05:53.328Z,1039.1
2023-02-08T02:07:09.497Z,1039.2
2023-02-08T02:08:25.678Z,1039.1
2023-02-08T02:09:41.882Z,1039.1
2023-02-08T02:10:58.059Z,1039.1
2023-02-08T02:12:14.260Z,1039.1
2023-02-08T02:13:30.435Z,1039
2023-02-08T02:14:46.640Z,1039
2023-02-08T02:16:02.829Z,1039
2023-02-08T02:17:19.021Z,1039
2023-02-08T02:18:35.202Z,1039
2023-02-08T02:19:50.415Z,1039
2023-02-08T02:21:06.603Z,1039.1
2023-02-08T02:22:22.790Z,1039
2023-02-08T02:23:38.973Z,1039.1
2023-02-08T02:24:55.166Z,1039
2023-02-08T02:26:11.382Z,1039.1
2023-02-08T02:27:27.534Z,1039.1
2023-02-08T02:28:43.752Z,1039.1
2023-02-08T02:29:59.951Z,1039.1
2023-02-08T02:31:16.108Z,1039.1
2023-02-08T02:32:32.315Z,1039.1
2023-02-08T02:33:48.479Z,1039.1
2023-02-08T02:35:04.682Z,1039.1
2023-02-08T02:36:19.887Z,1039.1
2023-02-08T02:37:36.073Z,1039.2
2023-02-08T02:38:52.273Z,1039.1
2023-02-08T02:40:08.438Z,1039.1
2023-02-08T02:41:24.641Z,1039.1
2023-02-08T02:42:40.839Z,1039.1
2023-02-08T02:43:57.007Z,1039.1
2023-02-08T02:45:13.203Z,1039.2
2023-02-08T02:46:29.383Z,1039.1
2023-02-08T02:47:45.570Z,1039.2
2023-02-08T02:49:01.754Z,1039.2
2023-02-08T02:50:17.940Z,1039.2
2023-02-08T02:51:34.124Z,1039.2
2023-02-08T02:52:49.335Z,1039.2
2023-02-08T02:54:05.531Z,1039.2
2023-02-08T02:55:21.727Z,1039.2
2023-02-08T02:56:37.890Z,1039.2
2023-02-08T02:57:54.111Z,1039.2
2023-02-08T02:59:10.271Z,1039.2
2023-02-08T03:00:26.469Z,1039.2
2023-02-08T03:01:42.652Z,1039.2
2023-02-08T03:02:58.854Z,1039.2
2023-02-08T03:04:15.015Z,1039.3
2023-02-08T03:05:31.217Z,1039.2
2023-02-08T03:06:47.420Z,1039.1
2023-02-08T03:08:03.599Z,1039.2
2023-02-08T03:09:18.786Z,1039.3
2023-02-08T03:10:34.986Z,1039.1
2023-02-08T03:11:51.154Z,1039.2
2023-02-08T03:13:07.346Z,1039.2
2023-02-08T03:14:23.547Z,1039.3
2023-02-08T03:15:39.734Z,1039.3
2023-02-08T03:16:55.921Z,1039.2
2023-02-08T03:18:12.102Z,1039.2
2023-02-08T03:19:28.312Z,1039.3
2023-02-08T03:20:44.487Z,1039.1
2023-02-08T03:22:00.657Z,1039.3
2023-02-08T03:23:16.854Z,1039.2
2023-02-08T03:24:33.039Z,1039.2
2023-02-08T03:25:48.240Z,1039.2
2023-02-08T03:27:04.434Z,1039.2
2023-02-08T03:28:20.622Z,1039.2
2023-02-08T03:29:36.809Z,1039.2
2023-02-08T03:30:52.993Z,1039.2
2023-02-08T03:32:09.180Z,1039.2
2023-02-08T03:33:25.374Z,1039.2
2023-02-08T03:34:41.561Z,1039.1
2023-02-08T03:35:57.732Z,1039.1
2023-02-08T03:37:13.924Z,1039.2
2023-02-08T03:38:30.125Z,1039.1
2023-02-08T03:39:46.305Z,1039.2
2023-02-08T03:41:02.489Z,1039.2
2023-02-08T03:42:17.695Z,1039.2
2023-02-08T03:43:33.882Z,1039.1
2023-02-08T03:44:50.076Z,1039.1
2023-02-08T03:46:06.264Z,1039.2
2023-02-08T03:47:22.437Z,1039.2
2023-02-08T03:48:38.642Z,1039.2
2023-02-08T03:49:54.820Z,1039.2
2023-02-08T03:51:11.008Z,1039.2
2023-02-08T03:52:27.209Z,1039.3
2023-02-08T03:53:43.377Z,1039.2
2023-02-08T03:54:59.559Z,1039.2
2023-02-08T03:56:15.751Z,1039.3
2023-02-08T03:57:31.937Z,1039.1
2023-02-08T03:58:47.154Z,1039.2
2023-02-08T04:00:03.329Z,1039.2
2023-02-08T04:01:19.514Z,1039.2
2023-02-08T04:02:35.715Z,1039.1
2023-02-08T04:03:51.891Z,1039.1
2023-02-08T04:05:08.085Z,1039.1
2023-02-08T04:06:24.279Z,1039.2
2023-02-08T04:07:40.463Z,1039.2
2023-02-08T04:08:56.654Z,1039.2
2023-02-08T04:10:12.826Z,1039.1
2023-02-08T04:11:29.019Z,1039.1
2023-02-08T04:12:45.211Z,1039.2
2023-02-08T04:14:01.398Z,1039.1
2023-02-08T04:15:16.605Z,1039.1
2023-02-08T04:16:32.776Z,1039.1
2023-02-08T04:17:48.976Z,1039.1
2023-02-08T04:19:05.163Z,1039.1
2023-02-08T04:20:21.356Z,1039.1
2023-02-08T04:21:37.544Z,1039.2
2023-02-08T04:22:53.722Z,1039.2
2023-02-08T04:24:09.907Z,1039.2
2023-02-08T04:25:26.099Z,1039.2
2023-02-08T04:26:42.294Z,1039.2
2023-02-08T04:27:58.472Z,1039.1
2023-02-08T04:29:14.663Z,1039.2
2023-02-08T04:30:30.846Z,1039.2
2023-02-08T04:31:46.048Z,1039.3
2023-02-08T04:33:02.242Z,1039.3
2023-02-08T04:34:18.422Z,1039.3
2023-02-08T04:35:34.614Z,1039.2
2023-02-08T04:36:50.793Z,1039.2
2023-02-08T04:38:06.980Z,1039.3
2023-02-08T04:39:23.182Z,1039.2
2023-02-08T04:40:39.363Z,1039.2
2023-02-08T04:41:55.555Z,1039.2
2023-02-08T04:43:11.738Z,1039.2
2023-02-08T04:44:27.910Z,1039.2
2023-02-08T04:45:44.116Z,1039.2
2023-02-08T04:47:00.299Z,1039.2
2023-02-08T04:48:15.507Z,1039.1
2023-02-08T04:49:31.684Z,1039.2
2023-02-08T04:50:47.881Z,1039.1
2023-02-08T04:52:04.050Z,1039.1
2023-02-08T04:53:20.257Z,1039.1
2023-02-08T04:54:35.451Z,1039.1
2023-02-08T04:55:51.657Z,1039.2
2023-02-08T04:57:07.836Z,1039.3
2023-02-08T04:58:24.029Z,1039.3
2023-02-08T04:59:40.202Z,1039.3
2023-02-08T05:00:56.392Z,1039.3
2023-02-08T05:02:12.592Z,1039.2
2023-02-08T05:03:28.780Z,1039.2
2023-02-08T05:04:44.953Z,1039.2
2023-02-08T05:06:01.157Z,1039.3
2023-02-08T05:07:17.322Z,1039.3
2023-02-08T05:08:33.518Z,1039.3
2023-02-08T05:09:49.701Z,1039.3
2023-02-08T05:11:04.922Z,1039.3
2023-02-08T05:12:21.096Z,1039.3
2023-02-08T05:13:37.273Z,1039.4
2023-02-08T05:14:53.000Z,1039.3
2023-02-08T05:16:09.666Z,1039.3
2023-02-08T05:17:25.845Z,1039.4
2023-02-08T05:18:42.034Z,1039.3
2023-02-08T05:19:58.209Z,1039.3
2023-02-08T05:21:14.422Z,1039.3
2023-02-08T05:22:30.582Z,1039.3
2023-02-08T05:23:46.772Z,1039.3
2023-02-08T05:25:02.977Z,1039.3
2023-02-08T05:26:19.153Z,1039.3
2023-02-08T05:27:34.365Z,1039.4
2023-02-08T05:28:50.545Z,1039.3
2023-02-08T05:30:06.716Z,1039.3
2023-02-08T05:31:22.928Z,1039.3
2023-02-08T05:32:39.122Z,1039.4
2023-02-08T05:33:55.294Z,1039.4
2023-02-08T05:35:11.470Z,1039.4
2023-02-08T05:36:27.680Z,1039.4
2023-02-08T05:37:43.840Z,1039.4
2023-02-08T05:39:00.030Z,1039.4
2023-02-08T05:40:16.239Z,1039.3
2023-02-08T05:41:32.423Z,1039.4
2023-02-08T05:42:48.605Z,1039.4
2023-02-08T05:44:03.820Z,1039.4
2023-02-08T05:45:19.980Z,1039.5
2023-02-08T05:46:36.192Z,1039.4
2023-02-08T05:47:52.381Z,1039.4
2023-02-08T05:49:08.556Z,1039.4
2023-02-08T05:50:24.729Z,1039.4
2023-02-08T05:51:40.930Z,1039.4
2023-02-08T05:52:57.117Z,1039.4
2023-02-08T05:54:13.312Z,1039.5
2023-02-08T05:55:29.511Z,1039.5
2023-02-08T05:56:45.688Z,1039.5
2023-02-08T05:58:01.886Z,1039.5
2023-02-08T05:59:18.068Z,1039.5
2023-02-08T06:00:33.260Z,1039.4
2023-02-08T06:01:49.461Z,1039.4
2023-02-08T06:03:05.649Z,1039.5
2023-02-08T06:04:21.820Z,1039.5
2023-02-08T06:05:38.004Z,1039.4
2023-02-08T06:06:54.201Z,1039.5
2023-02-08T06:08:10.364Z,1039.5
2023-02-08T06:09:26.572Z,1039.4
2023-02-08T06:10:42.777Z,1039.5
2023-02-08T06:11:58.962Z,1039.5
2023-02-08T06:13:15.148Z,1039.5
2023-02-08T06:14:31.338Z,1039.5
2023-02-08T06:15:47.499Z,1039.6
2023-02-08T06:17:02.729Z,1039.6
2023-02-08T06:18:18.903Z,1039.6
2023-02-08T06:19:35.092Z,1039.6
2023-02-08T06:20:51.265Z,1039.6
2023-02-08T06:22:07.473Z,1039.6
2023-02-08T06:23:23.657Z,1039.6
2023-02-08T06:24:39.850Z,1039.6
2023-02-08T06:25:56.036Z,1039.6
2023-02-08T06:27:12.224Z,1039.6
2023-02-08T06:28:28.407Z,1039.6
2023-02-08T06:29:44.600Z,1039.6
2023-02-08T06:31:00.758Z,1039.6
2023-02-08T06:32:16.977Z,1039.6
2023-02-08T06:33:32.181Z,1039.7
2023-02-08T06:34:48.327Z,1039.7
2023-02-08T06:36:04.548Z,1039.7
2023-02-08T06:37:20.743Z,1039.7
2023-02-08T06:38:36.892Z,1039.7
2023-02-08T06:39:53.103Z,1039.7
2023-02-08T06:41:09.288Z,1039.7
2023-02-08T06:42:25.490Z,1039.7
2023-02-08T06:43:41.664Z,1039.7
2023-02-08T06:44:57.863Z,1039.7
2023-02-08T06:46:14.008Z,1039.8
2023-02-08T06:47:30.240Z,1039.8
2023-02-08T06:48:46.426Z,1039.7
2023-02-08T06:50:01.629Z,1039.8
2023-02-08T06:51:17.820Z,1039.8
2023-02-08T06:52:33.992Z,1039.7
2023-02-08T06:53:50.149Z,1039.8
2023-02-08T06:55:06.350Z,1039.7
2023-02-08T06:56:22.565Z,1039.8
2023-02-08T06:57:38.739Z,1039.8
2023-02-08T06:58:54.941Z,1039.8
2023-02-08T07:00:11.128Z,1039.7
2023-02-08T07:01:27.285Z,1039.8
2023-02-08T07:02:43.469Z,1039.7
2023-02-08T07:03:59.688Z,1039.8
2023-02-08T07:05:15.879Z,1039.8
2023-02-08T07:06:31.075Z,1039.8
2023-02-08T07:07:47.268Z,1039.8
2023-02-08T07:09:03.405Z,1039.7
2023-02-08T07:10:19.632Z,1039.7
2023-02-08T07:11:35.828Z,1039.8
2023-02-08T07:12:52.017Z,1039.8
2023-02-08T07:14:08.208Z,1039.8
2023-02-08T07:15:24.381Z,1039.8
2023-02-08T07:16:40.536Z,1039.8
2023-02-08T07:17:56.723Z,1039.7
2023-02-08T07:19:12.909Z,1039.8
2023-02-08T07:20:29.131Z,1039.7
2023-02-08T07:21:45.330Z,1039.7
2023-02-08T07:23:00.525Z,1039.7
2023-02-08T07:24:16.677Z,1039.6
2023-02-08T07:25:32.854Z,1039.7
2023-02-08T07:26:49.047Z,1039.6
2023-02-08T07:28:05.240Z,1039.6
2023-02-08T07:29:21.463Z,1039.6
2023-02-08T07:30:37.660Z,1039.6
2023-02-08T07:31:53.800Z,1039.6
2023-02-08T07:33:10.025Z,1039.6
2023-02-08T07:34:26.220Z,1039.6
2023-02-08T07:35:42.364Z,1039.6
2023-02-08T07:36:58.580Z,1039.6
2023-02-08T07:38:14.733Z,1039.6
2023-02-08T07:39:29.927Z,1039.6
2023-02-08T07:40:46.171Z,1039.6
2023-02-08T07:42:02.362Z,1039.7
2023-02-08T07:43:18.538Z,1039.7
2023-02-08T07:44:34.721Z,1039.7
2023-02-08T07:45:50.907Z,1039.7
2023-02-08T07:47:07.108Z,1039.7
2023-02-08T07:48:23.281Z,1039.7
2023-02-08T07:49:39.427Z,1039.8
2023-02-08T07:50:55.661Z,1039.8
2023-02-08T07:52:11.804Z,1039.8
2023-02-08T07:53:28.045Z,1039.8
2023-02-08T07:54:44.184Z,1039.8
2023-02-08T07:55:59.396Z,1039.9
2023-02-08T07:57:15.627Z,1039.9
2023-02-08T07:58:31.768Z,1039.8
2023-02-08T07:59:47.997Z,1039.9
2023-02-08T08:01:04.174Z,1039.9
2023-02-08T08:02:20.331Z,1039.8
2023-02-08T08:03:36.562Z,1039.9
2023-02-08T08:04:52.746Z,1040
2023-02-08T08:06:08.931Z,1040
2023-02-08T08:07:25.124Z,1039.9
2023-02-08T08:08:41.306Z,1040
2023-02-08T08:09:57.486Z,1039.9
2023-02-08T08:11:13.677Z,1040
2023-02-08T08:12:28.833Z,1040
2023-02-08T08:13:45.075Z,1039.9
2023-02-08T08:15:01.254Z,1040
2023-02-08T08:16:17.437Z,1040
2023-02-08T08:17:33.594Z,1040
2023-02-08T08:18:49.828Z,1040.1
2023-02-08T08:20:06.011Z,1040.1
2023-02-08T08:21:22.193Z,1040.1
2023-02-08T08:22:38.393Z,1040.1
2023-02-08T08:23:54.567Z,1040.1
2023-02-08T08:25:10.699Z,1040.1
2023-02-08T08:26:26.952Z,1040.1
2023-02-08T08:27:43.135Z,1040.1
2023-02-08T08:28:58.337Z,1040.1
2023-02-08T08:30:14.514Z,1040.2
2023-02-08T08:31:30.667Z,1040.1
2023-02-08T08:32:46.841Z,1040.1
2023-02-08T08:34:03.089Z,1040.1
2023-02-08T08:35:19.224Z,1040.1
2023-02-08T08:36:35.458Z,1040.2
2023-02-08T08:37:51.643Z,1040.2
2023-02-08T08:39:07.841Z,1040.1
2023-02-08T08:40:23.961Z,1040.1
2023-02-08T08:41:40.219Z,1040.1
2023-02-08T08:42:56.397Z,1040.1
2023-02-08T08:44:12.583Z,1040.1
2023-02-08T08:45:27.782Z,1040.1
2023-02-08T08:46:43.984Z,1040.1
2023-02-08T08:48:00.111Z,1040.1
2023-02-08T08:49:16.357Z,1040.1
2023-02-08T08:50:32.545Z,1040.1
2023-02-08T08:51:48.730Z,1040
2023-02-08T08:53:04.922Z,1040
2023-02-08T08:54:21.097Z,1040
2023-02-08T08:55:37.233Z,1040
2023-02-08T08:56:53.427Z,1039.9
2023-02-08T08:58:09.670Z,1039.9
2023-02-08T08:59:25.844Z,1039.9
2023-02-08T09:00:42.031Z,1039.9
2023-02-08T09:01:57.249Z,1039.9
2023-02-08T09:03:13.368Z,1039.9
2023-02-08T09:04:29.551Z,1039.9
2023-02-08T09:05:45.810Z,1039.9
2023-02-08T09:07:01.997Z,1039.9
2023-02-08T09:08:18.188Z,1039.9
2023-02-08T09:09:33.315Z,1039.8
2023-02-08T09:10:49.508Z,1039.9
2023-02-08T09:12:05.770Z,1039.8
2023-02-08T09:13:21.942Z,1039.8
2023-02-08T09:14:38.138Z,1039.8
2023-02-08T09:15:54.327Z,1039.7
2023-02-08T09:17:10.508Z,1039.7
2023-02-08T09:18:26.692Z,1039.8
2023-02-08T09:19:42.894Z,1039.7
2023-02-08T09:20:59.079Z,1039.8
2023-02-08T09:22:15.186Z,1039.8
2023-02-08T09:23:31.439Z,1039.7
2023-02-08T09:24:47.637Z,1039.8
2023-02-08T09:26:02.765Z,1039.8
2023-02-08T09:27:18.963Z,1039.8
2023-02-08T09:28:35.207Z,1039.9
2023-02-08T09:29:51.403Z,1040
2023-02-08T09:31:07.595Z,1039.9
2023-02-08T09:32:23.781Z,1040
2023-02-08T09:33:39.900Z,1039.9
2023-02-08T09:34:56.094Z,1039.9
2023-02-08T09:36:12.277Z,1040
2023-02-08T09:37:28.517Z,1040
2023-02-08T09:38:44.708Z,1040
2023-02-08T09:40:00.834Z,1040
2023-02-08T09:41:17.097Z,1040
2023-02-08T09:42:32.286Z,1040
2023-02-08T09:43:48.471Z,1040
2023-02-08T09:45:04.666Z,1040
2023-02-08T09:46:20.844Z,1039.9
2023-02-08T09:47:37.044Z,1040
2023-02-08T09:48:53.149Z,1039.9
2023-02-08T09:50:09.338Z,1040
2023-02-08T09:51:25.610Z,1040
2023-02-08T09:52:41.718Z,1040
2023-02-08T09:53:57.975Z,1039.9
2023-02-08T09:55:14.160Z,1039.8
2023-02-08T09:56:30.286Z,1039.8
2023-02-08T09:57:46.546Z,1039.8
2023-02-08T09:59:01.663Z,1039.8
2023-02-08T10:00:17.929Z,1039.7
2023-02-08T10:01:34.109Z,1039.7
2023-02-08T10:02:50.313Z,1039.8
2023-02-08T10:04:06.424Z,1039.7
2023-02-08T10:05:22.686Z,1039.7
2023-02-08T10:06:38.864Z,1039.8
2023-02-08T10:07:55.050Z,1039.7
2023-02-08T10:09:11.236Z,1039.6
2023-02-08T10:10:27.430Z,1039.6
2023-02-08T10:11:43.551Z,1039.7
2023-02-08T10:12:59.799Z,1039.6
2023-02-08T10:14:15.912Z,1039.6
2023-02-08T10:15:31.124Z,1039.6
2023-02-08T10:16:47.376Z,1039.6
2023-02-08T10:18:03.560Z,1039.6
2023-02-08T10:19:19.677Z,1039.5
2023-02-08T10:20:35.942Z,1039.5
2023-02-08T10:21:52.131Z,1039.5
2023-02-08T10:23:08.328Z,1039.5
2023-02-08T10:24:24.497Z,1039.5
2023-02-08T10:25:40.703Z,1039.4
2023-02-08T10:26:56.810Z,1039.4
2023-02-08T10:28:13.068Z,1039.5
2023-02-08T10:29:29.176Z,1039.4
2023-02-08T10:30:45.366Z,1039.4
2023-02-08T10:32:00.656Z,1039.4
2023-02-08T10:33:16.825Z,1039.4
2023-02-08T10:34:32.934Z,1039.5
2023-02-08T10:35:49.138Z,1039.4
2023-02-08T10:37:05.387Z,1039.4
2023-02-08T10:38:21.589Z,1039.4
2023-02-08T10:39:37.772Z,1039.3
2023-02-08T10:40:53.958Z,1039.3
2023-02-08T10:42:10.057Z,1039.2
2023-02-08T10:43:26.327Z,1039.2
2023-02-08T10:44:42.517Z,1039.2
2023-02-08T10:45:58.713Z,1039.2
2023-02-08T10:47:14.891Z,1039.1
2023-02-08T10:48:30.108Z,1039.2
2023-02-08T10:49:46.277Z,1039.1
2023-02-08T10:51:02.475Z,1039.1
2023-02-08T10:52:18.659Z,1039
2023-02-08T10:53:34.849Z,1039
2023-02-08T10:54:51.046Z,1039
2023-02-08T10:56:07.138Z,1039
2023-02-08T10:57:23.324Z,1039
2023-02-08T10:58:39.509Z,1039.1
2023-02-08T10:59:55.794Z,1039
2023-02-08T11:01:11.981Z,1039
2023-02-08T11:02:28.075Z,1039
2023-02-08T11:03:44.353Z,1038.9
2023-02-08T11:04:59.561Z,1039
2023-02-08T11:06:15.738Z,1038.9
2023-02-08T11:07:31.925Z,1038.9
2023-02-08T11:08:48.035Z,1038.9
2023-02-08T11:10:04.000Z,1038.9
2023-02-08T11:11:20.497Z,1038.8
2023-02-08T11:12:36.679Z,1038.9
2023-02-08T11:13:52.867Z,1038.9
2023-02-08T11:15:09.051Z,1038.9
2023-02-08T11:16:25.237Z,1038.9
2023-02-08T11:17:41.430Z,1038.9
2023-02-08T11:18:57.613Z,1038.8
2023-02-08T11:20:13.711Z,1038.8
2023-02-08T11:21:28.922Z,1038.8
2023-02-08T11:22:45.200Z,1038.9
2023-02-08T11:24:01.374Z,1038.8
2023-02-08T11:25:17.571Z,1038.7
2023-02-08T11:26:33.754Z,1038.8
2023-02-08T11:27:49.846Z,1038.8
2023-02-08T11:29:06.122Z,1038.7
2023-02-08T11:30:22.312Z,1038.7
2023-02-08T11:31:38.408Z,1038.6
2023-02-08T11:32:54.699Z,1038.6
2023-02-08T11:34:10.885Z,1038.6
2023-02-08T11:35:27.072Z,1038.7
2023-02-08T11:36:43.245Z,1038.5
2023-02-08T11:37:58.458Z,1038.6
2023-02-08T11:39:14.654Z,1038.6
2023-02-08T11:40:30.842Z,1038.6
2023-02-08T11:41:47.015Z,1038.6
2023-02-08T11:43:03.117Z,1038.6
2023-02-08T11:44:19.392Z,1038.6
2023-02-08T11:45:35.592Z,1038.6
2023-02-08T11:46:51.676Z,1038.6
2023-02-08T11:48:07.959Z,1038.6
2023-02-08T11:49:24.137Z,1038.5
2023-02-08T11:50:40.324Z,1038.5
2023-02-08T11:51:56.517Z,1038.5
2023-02-08T11:53:12.716Z,1038.6
2023-02-08T11:54:27.814Z,1038.6
2023-02-08T11:55:44.095Z,1038.5
2023-02-08T11:57:00.197Z,1038.5
2023-02-08T11:58:16.371Z,1038.5
2023-02-08T11:59:32.658Z,1038.4
2023-02-08T12:00:48.847Z,1038.5
2023-02-08T12:02:05.033Z,1038.5
2023-02-08T12:03:21.227Z,1038.4
2023-02-08T12:04:37.406Z,1038.5
2023-02-08T12:05:53.492Z,1038.5
2023-02-08T12:07:09.781Z,1038.4
2023-02-08T12:08:25.977Z,1038.4
2023-02-08T12:09:42.160Z,1038.4
2023-02-08T12:10:57.368Z,1038.4
2023-02-08T12:12:13.555Z,1038.4
2023-02-08T12:13:29.627Z,1038.3
2023-02-08T12:14:45.926Z,1038.3
2023-02-08T12:16:02.111Z,1038.3
2023-02-08T12:17:18.310Z,1038.4
2023-02-08T12:18:34.383Z,1038.3
2023-02-08T12:19:50.570Z,1038.3
2023-02-08T12:21:06.774Z,1038.3
2023-02-08T12:22:23.067Z,1038.4
2023-02-08T12:23:39.247Z,1038.4
2023-02-08T12:24:55.322Z,1038.4
2023-02-08T12:26:11.623Z,1038.3
2023-02-08T12:27:26.837Z,1038.5
2023-02-08T12:28:42.918Z,1038.4
2023-02-08T12:29:59.095Z,1038.4
2023-02-08T12:31:15.408Z,1038.5
2023-02-08T12:32:31.593Z,1038.4
2023-02-08T12:33:47.767Z,1038.4
2023-02-08T12:35:03.972Z,1038.4
2023-02-08T12:36:20.052Z,1038.5
2023-02-08T12:37:36.235Z,1038.4
2023-02-08T12:38:52.539Z,1038.4
2023-02-08T12:40:08.723Z,1038.4
2023-02-08T12:41:24.909Z,1038.4
2023-02-08T12:42:41.105Z,1038.5
2023-02-08T12:43:56.205Z,1038.5
2023-02-08T12:45:12.377Z,1038.4
2023-02-08T12:46:28.578Z,1038.4
2023-02-08T12:47:44.877Z,1038.5
2023-02-08T12:49:01.065Z,1038.5
2023-02-08T12:50:17.242Z,1038.5
2023-02-08T12:51:33.320Z,1038.5
2023-02-08T12:52:49.632Z,1038.5
2023-02-08T12:54:05.807Z,1038.3
2023-02-08T12:55:21.996Z,1038.4
2023-02-08T12:56:38.079Z,1038.4
2023-02-08T12:57:54.269Z,1038.5
2023-02-08T13:00:26.767Z,1038.4
2023-02-08T13:01:41.856Z,1038.4
2023-02-08T13:02:58.164Z,1038.4
2023-02-08T13:04:14.352Z,1038.4
2023-02-08T13:05:30.530Z,1038.3
2023-02-08T13:06:46.616Z,1038.3
2023-02-08T13:08:02.909Z,1038.3
2023-02-08T13:09:19.096Z,1038.3
2023-02-08T13:10:35.179Z,1038.3
2023-02-08T13:11:51.482Z,1038.3
2023-02-08T13:13:07.678Z,1038.2
2023-02-08T13:14:23.739Z,1038.3
2023-02-08T13:15:39.939Z,1038.3
2023-02-08T13:16:56.244Z,1038.3
2023-02-08T13:18:11.450Z,1038.2
2023-02-08T13:19:27.510Z,1038.3
2023-02-08T13:20:43.710Z,1038.2
2023-02-08T13:21:59.883Z,1038.2
2023-02-08T13:23:16.199Z,1038.2
2023-02-08T13:24:31.413Z,1038.2
2023-02-08T13:25:47.588Z,1038.2
2023-02-08T13:27:03.797Z,1038.1
2023-02-08T13:28:19.978Z,1038.1
2023-02-08T13:29:36.050Z,1038
2023-02-08T13:30:52.351Z,1038
2023-02-08T13:32:08.546Z,1038
2023-02-08T13:33:24.731Z,1038
2023-02-08T13:34:40.924Z,1038
2023-02-08T13:35:57.115Z,1038
2023-02-08T13:37:13.177Z,1038
2023-02-08T13:38:29.495Z,1038
2023-02-08T13:39:45.679Z,1037.9
2023-02-08T13:41:00.892Z,1037.9
2023-02-08T13:42:17.074Z,1037.9
2023-02-08T13:43:33.261Z,1038
2023-02-08T13:44:49.338Z,1038
2023-02-08T13:46:05.649Z,1038
2023-02-08T13:47:21.836Z,1038
2023-02-08T13:48:38.013Z,1038
2023-02-08T13:49:54.201Z,1037.9
2023-02-08T13:51:10.265Z,1038
2023-02-08T13:52:26.466Z,1038
2023-02-08T13:53:42.771Z,1037.9
2023-02-08T13:54:58.963Z,1037.9
2023-02-08T13:56:15.142Z,1037.9
2023-02-08T13:57:30.351Z,1037.9
2023-02-08T13:58:46.547Z,1037.8
2023-02-08T14:00:02.603Z,1037.8
2023-02-08T14:01:18.924Z,1037.8
2023-02-08T14:02:35.115Z,1037.8
2023-02-08T14:03:51.298Z,1037.9
2023-02-08T14:05:07.356Z,1037.9
2023-02-08T14:06:23.561Z,1037.9
2023-02-08T14:07:39.880Z,1037.9
2023-02-08T14:08:55.926Z,1037.9
2023-02-08T14:10:12.120Z,1037.9
2023-02-08T14:11:28.313Z,1037.9
2023-02-08T14:12:44.647Z,1037.8
2023-02-08T14:13:59.833Z,1037.8
2023-02-08T14:15:16.019Z,1037.9
2023-02-08T14:16:32.204Z,1037.8
2023-02-08T14:17:48.394Z,1037.8
2023-02-08T14:19:04.458Z,1037.7
2023-02-08T14:20:20.777Z,1037.7
2023-02-08T14:21:36.957Z,1037.8
2023-02-08T14:22:53.022Z,1037.7
2023-02-08T14:24:09.335Z,1037.7
2023-02-08T14:25:25.543Z,1037.7
2023-02-08T14:26:41.731Z,1037.7
2023-02-08T14:27:57.907Z,1037.7
2023-02-08T14:29:13.967Z,1037.7
2023-02-08T14:30:29.178Z,1037.7
2023-02-08T14:31:45.360Z,1037.6
2023-02-08T14:33:01.556Z,1037.7
2023-02-08T14:34:17.883Z,1037.6
2023-02-08T14:35:34.066Z,1037.7
2023-02-08T14:36:50.113Z,1037.6
2023-02-08T14:38:06.299Z,1037.7
2023-02-08T14:39:22.637Z,1037.6
2023-02-08T14:40:38.820Z,1037.7
2023-02-08T14:41:55.009Z,1037.6
2023-02-08T14:43:11.052Z,1037.6
2023-02-08T14:44:27.256Z,1037.6
2023-02-08T14:45:43.443Z,1037.6
2023-02-08T14:46:58.651Z,1037.5
2023-02-08T14:48:14.973Z,1037.6
2023-02-08T14:49:31.157Z,1037.6
2023-02-08T14:50:47.353Z,1037.6
2023-02-08T14:52:03.394Z,1037.5
2023-02-08T14:53:19.592Z,1037.6
2023-02-08T14:54:35.912Z,1037.6
2023-02-08T14:55:52.114Z,1037.5
2023-02-08T14:57:08.302Z,1037.6
2023-02-08T14:58:24.494Z,1037.5
2023-02-08T14:59:40.680Z,1037.5
2023-02-08T15:00:56.714Z,1037.5
2023-02-08T15:02:13.053Z,1037.5
2023-02-08T15:03:28.259Z,1037.5
2023-02-08T15:04:44.449Z,1037.4
2023-02-08T15:06:00.627Z,1037.5
2023-02-08T15:07:16.826Z,1037.5
2023-02-08T15:08:32.864Z,1037.5
2023-02-08T15:09:49.197Z,1037.4
2023-02-08T15:11:05.391Z,1037.4
2023-02-08T15:12:21.587Z,1037.4
2023-02-08T15:13:37.764Z,1037.4
2023-02-08T15:14:53.952Z,1037.5
2023-02-08T15:16:10.007Z,1037.4
2023-02-08T15:17:26.338Z,1037.3
2023-02-08T15:18:42.377Z,1037.4
2023-02-08T15:19:57.725Z,1037.3
2023-02-08T15:21:13.771Z,1037.3
2023-02-08T15:22:29.976Z,1037.4
2023-02-08T15:23:46.163Z,1037.3
2023-02-08T15:25:02.495Z,1037.3
2023-02-08T15:26:18.683Z,1037.2
2023-02-08T15:27:34.872Z,1037.2
2023-02-08T15:28:51.062Z,1037.3
2023-02-08T15:30:07.095Z,1037.2
2023-02-08T15:31:23.428Z,1037.2
2023-02-08T15:32:39.614Z,1037.2
2023-02-08T15:33:55.811Z,1037.2
2023-02-08T15:35:11.853Z,1037.2
2023-02-08T15:36:27.203Z,1037.3
2023-02-08T15:37:43.399Z,1037.2
2023-02-08T15:38:59.447Z,1037.2
2023-02-08T15:40:15.777Z,1037.2
2023-02-08T15:41:31.971Z,1037.2
2023-02-08T15:42:48.149Z,1037.2
2023-02-08T15:44:04.340Z,1037.2
2023-02-08T15:45:20.532Z,1037.2
2023-02-08T15:46:36.581Z,1037.1
2023-02-08T15:47:52.756Z,1037.2
2023-02-08T15:49:09.097Z,1037.1
2023-02-08T15:50:25.291Z,1037.1
2023-02-08T15:51:41.488Z,1037.1
2023-02-08T15:52:56.688Z,1037
2023-02-08T15:54:12.868Z,1037.1
2023-02-08T15:55:29.053Z,1037
2023-02-08T15:56:45.093Z,1037